Terminal Aerodrome Forecast
Issued by NWS Charleston, WV

Current Version | Previous Version | Graphics & Text | Print | Product List | Glossary On
Versions: 1 2 3 4 5 6 7 8 9 10 11 12 13 14 15 16 17 18 19 20 21 22 23 24 25 26 27 28 29 30 31
000
FTUS41 KRLX 301120
TAFBKW
TAF
KBKW 301120Z 3012/3112 VRB03KT P6SM SKC
      TEMPO 3012/3014 BKN015
     FM301400 VRB03KT P6SM BKN025
     FM301500 23004KT P6SM BKN035
     FM301900 25006KT P6SM VCTS BKN050CB
     FM302100 27006KT P6SM BKN050
     FM310500 00000KT P6SM BKN015
     FM310900 00000KT P6SM BKN003=

USA.gov is the U.S. government's official web portal to all federal, state and local government web resources and services.